Archival Weather

Fayette Rgnl Air Cntr Arp

Fayette Rgnl Air Cntr Arp, Texas (K3T5)

Report from: Thursday, September 22, 2022 8:55 AM CDT
Current time: Friday, February 3, 2023 11:28 PM CST

Current weather
Weather history
Weather forecast

Temperature24.3°C (75.7°F)
Dew point22.0°C (71.6°F)
Winds 3 kts (1.5 m/s, 3.5 mph) Northwest (320°)
Visibility10 mi. (16.1 km)
Clouds Sky clear
Altimeter30.01 in.Hg (1016 mB)
Relative humidity87 %
Density altitude1,333 ft. (406 m)
Remarks Fully automated report
Automated weather observing station with precipitation discriminator
Flight conditions Visual Meteorological Conditions
Raw dataK3T5 221355Z AUTO 32003KT 10SM CLR 24/22 A3001 RMK AO2 T02430220
An unhandled exception has occurred. See browser dev tools for details. Reload 🗙